Terminal Aerodrome Forecast
Issued by NWS Raleigh/Durham, NC

Home | Current Version | Previous Version | Text Only | Print | Product List | Glossary On
Versions: 1 2 3 4 5 6 7 8 9 10 11 12 13 14 15 16 17 18 19 20 21 22 23 24 25 26 27 28 29 30 31 32 33 34 35 36 37 38 39 40 41 42
000
FTUS42 KRAH 041254 AAA
TAFFAY
TAF AMD
KFAY 041254Z 0413/0512 03003KT P6SM SCT004 SCT016 BKN100
     FM041500 22008KT P6SM VCSH FEW025 SCT050 SCT250
      TEMPO 0416/0419 4SM -TSRA BKN025CB BKN090 OVC250=

USA.gov is the U.S. government's official web portal to all federal, state and local government web resources and services.